首页
METAR-TAF:

METAR-TAF

机场 :

波特兰国际机场

波特蘭, 俄勒冈州, 美国

纬度: 45-35-27N, 经度: 122-36-01W, 海拔: 8米

当前天气观测

该预报发布于36分钟前的23:53 UTC
风速21节,风向,有时为28节阵风
温度 19°C
湿度 26%
气压 1018 hPa
能見度: 16.1公里
天空无云

METAR: KPDX 182353Z 09021G28KT 10SM CLR 19/M01 A3007 RMK AO2 PK WND 08034/2326 SLP181 T01891006 56009

时间: 17:29 (00:29 UTC)

预报

该预报发布于1小时和9分钟前的23:20 UTC
预报有效从19日的 00点(UTC)到 19日的 24点(UTC)
风速23节,风向,有时为30节阵风
能見度: 10公里
天空无云

TAF: KPDX 182320Z 1900/1924 09023G30KT P6SM SKC

超过4000个机场的气象观测和天气预报(METAR&TAF报告)。

可查询的气象台以黄色和红色小点在地图上表示。

将鼠标移到小点上方,可查看气象台名称。

然后点击查看天气观测和预报。

如需切换地图:点击带黑十字的绿色按钮放大地图;点击带横线的绿色按钮缩小地图;或者点击绿色箭头查看邻近地区的地图。


METAR-TAF: